Skip Navigation Links Skip Navigation Links

Current Weather

Galesburg Muni, Galesburg, Ill.

For information only: do not use for flight planning or navigation.
Latest weather
Observation time Monday, October 18, 2021 2:55 PM CDT
Local time Monday, October 18, 2021 3:03 PM CDT
Flight conditions Visual Meteorological Conditions
Winds
Wind direction South (170°)
Wind speed 8 mph
Visibility 10 mi.
Sky condition
Ceiling unlimited
Sky clear
Temperature 70°F
Dewpoint 45°F
Altimeter 30.06 in.Hg
Derived measurements
Relative humidity 41%
Density altitude 1454 ft.
Remarks
Fully automated report.
Automated weather observing station with precipitation discriminator.
METAR KGBG 181955Z AUTO 17007KT 10SM CLR 21/07 A3006 RMK AO2 T02100071

Settings

Location code

InnerDrive.Weather 4.0.6770.0 Release CLR 4.0.30319.42000
Copyright ©2018 Inner Drive Technology. All rights reserved. Portions Copyright ©1986-2018 David Braverman.

Find weather

Site navigation


Skip Navigation Links

Place info

Page info

PayPal - The safer, easier way to pay online!

Return home.

Copyright ©2021 Inner Drive Technology. Purveyors of fine, hand-crafted computer software. Page printed 2021-10-18T20:03:54 UTC.